createdAt,value
2022-12-23T00:01:20.378Z,100972.84
2022-12-23T00:03:48.054Z,100984.84
2022-12-23T00:06:16.922Z,100985.63
2022-12-23T00:08:45.326Z,100982.34
2022-12-23T00:11:17.487Z,100983.03
2022-12-23T00:14:03.725Z,100975.44
2022-12-23T00:16:31.951Z,100962.28
2022-12-23T00:18:59.602Z,100953.97
2022-12-23T00:21:27.486Z,100946.94
2022-12-23T00:23:55.247Z,100950.88
2022-12-23T00:26:24.258Z,100951.94
2022-12-23T00:28:52.156Z,100955.56
2022-12-23T00:31:20.167Z,100958.22
2022-12-23T00:33:49.174Z,100966.25
2022-12-23T00:36:24.315Z,100962.47
2022-12-23T00:39:11.037Z,100961.81
2022-12-23T00:41:57.802Z,100968.84
2022-12-23T00:44:25.528Z,100978.81
2022-12-23T00:46:53.603Z,100972.91
2022-12-23T00:49:39.871Z,100982.41
2022-12-23T00:52:09.307Z,100980.38
2022-12-23T00:54:37.039Z,100984.44
2022-12-23T00:57:05.341Z,100986.00
2022-12-23T00:59:33.387Z,100995.88
2022-12-23T01:02:19.902Z,100996.59
2022-12-23T01:05:05.825Z,100999.25
2022-12-23T01:07:33.630Z,101005.44
2022-12-23T01:10:01.439Z,100998.22
2022-12-23T01:12:29.066Z,100993.19
2022-12-23T01:14:56.693Z,100994.63
2022-12-23T01:17:24.362Z,101001.00
2022-12-23T01:19:52.236Z,101007.44
2022-12-23T01:22:22.919Z,101002.72
2022-12-23T01:24:50.577Z,101000.84
2022-12-23T01:27:18.545Z,100990.84
2022-12-23T01:29:46.267Z,100983.59
2022-12-23T01:32:14.162Z,100997.53
2022-12-23T01:34:41.981Z,101006.94
2022-12-23T01:37:09.703Z,101001.63
2022-12-23T01:39:37.755Z,100978.31
2022-12-23T01:42:25.571Z,100995.19
2022-12-23T01:44:57.843Z,100981.59
2022-12-23T01:47:25.775Z,100973.00
2022-12-23T01:50:13.562Z,100964.28
2022-12-23T01:52:52.192Z,100959.75
2022-12-23T01:55:22.396Z,100964.78
2022-12-23T01:57:50.300Z,100961.88
2022-12-23T02:00:36.495Z,100968.56
2022-12-23T02:03:22.943Z,100954.50
2022-12-23T02:05:52.219Z,100967.66
2022-12-23T02:08:38.743Z,100969.78
2022-12-23T02:11:12.175Z,100986.19
2022-12-23T02:14:24.380Z,100977.16
2022-12-23T02:16:56.438Z,100972.06
2022-12-23T02:19:42.342Z,100967.00
2022-12-23T02:22:23.026Z,100966.44
2022-12-23T02:24:56.441Z,100966.50
2022-12-23T02:27:45.481Z,100973.03
2022-12-23T02:30:24.996Z,100965.09
2022-12-23T02:32:52.766Z,100964.78
2022-12-23T02:35:20.516Z,100952.38
2022-12-23T02:37:47.996Z,100952.50
2022-12-23T02:40:31.697Z,100966.63
2022-12-23T02:43:00.870Z,100953.44
2022-12-23T02:45:36.100Z,100950.47
2022-12-23T02:48:08.696Z,100954.38
2022-12-23T02:50:38.664Z,100950.97
2022-12-23T02:53:14.376Z,100937.81
2022-12-23T02:55:43.592Z,100944.91
2022-12-23T02:58:16.100Z,100944.25
2022-12-23T03:00:44.294Z,100941.34
2022-12-23T03:03:11.990Z,100946.00
2022-12-23T03:05:46.763Z,100942.53
2022-12-23T03:08:16.860Z,100937.41
2022-12-23T03:11:05.512Z,100937.94
2022-12-23T03:13:33.386Z,100925.69
2022-12-23T03:16:19.729Z,100931.56
2022-12-23T03:18:47.764Z,100945.38
2022-12-23T03:21:36.934Z,100953.91
2022-12-23T03:24:04.640Z,100951.00
2022-12-23T03:27:01.670Z,100945.13
2022-12-23T03:29:53.921Z,100939.16
2022-12-23T03:32:22.408Z,100953.09
2022-12-23T03:34:52.514Z,100945.97
2022-12-23T03:37:21.854Z,100937.75
2022-12-23T03:39:54.975Z,100941.69
2022-12-23T03:42:50.371Z,100943.59
2022-12-23T03:45:38.665Z,100916.09
2022-12-23T03:48:10.299Z,100915.38
2022-12-23T03:50:41.861Z,100909.97
2022-12-23T03:53:16.992Z,100915.63
2022-12-23T03:55:47.144Z,100922.91
2022-12-23T03:58:20.333Z,100927.16
2022-12-23T04:00:53.508Z,100931.75
2022-12-23T04:03:32.139Z,100935.75
2022-12-23T04:06:02.325Z,100926.03
2022-12-23T04:08:32.998Z,100923.16
2022-12-23T04:11:01.488Z,100933.06
2022-12-23T04:13:30.219Z,100914.09
2022-12-23T04:15:58.710Z,100910.25
2022-12-23T04:18:26.428Z,100917.38
2022-12-23T04:20:54.626Z,100914.66
2022-12-23T04:23:22.800Z,100911.06
2022-12-23T04:25:51.030Z,100906.63
2022-12-23T04:28:19.298Z,100917.25
2022-12-23T04:30:47.293Z,100920.31
2022-12-23T04:33:15.125Z,100928.84
2022-12-23T04:35:43.189Z,100918.31
2022-12-23T04:38:11.145Z,100917.38
2022-12-23T04:40:39.073Z,100927.28
2022-12-23T04:43:07.173Z,100922.41
2022-12-23T04:45:34.827Z,100924.50
2022-12-23T04:48:02.899Z,100934.66
2022-12-23T04:50:31.120Z,100930.84
2022-12-23T04:52:59.080Z,100927.41
2022-12-23T04:55:26.890Z,100928.91
2022-12-23T04:57:54.587Z,100934.38
2022-12-23T05:00:22.481Z,100922.50
2022-12-23T05:02:50.362Z,100922.66
2022-12-23T05:05:18.640Z,100922.66
2022-12-23T05:07:49.321Z,100920.38
2022-12-23T05:10:17.243Z,100915.19
2022-12-23T05:12:44.903Z,100918.88
2022-12-23T05:15:12.702Z,100917.72
2022-12-23T05:17:40.402Z,100915.84
2022-12-23T05:20:09.316Z,100922.09
2022-12-23T05:22:37.086Z,100922.56
2022-12-23T05:25:05.565Z,100939.50
2022-12-23T05:27:33.459Z,100938.19
2022-12-23T05:30:01.106Z,100951.00
2022-12-23T05:32:28.778Z,100940.84
2022-12-23T05:34:56.767Z,100937.22
2022-12-23T05:37:24.633Z,100925.81
2022-12-23T05:39:52.390Z,100919.16
2022-12-23T05:42:20.327Z,100921.13
2022-12-23T05:44:48.203Z,100930.13
2022-12-23T05:47:16.137Z,100930.56
2022-12-23T05:49:44.443Z,100934.72
2022-12-23T05:52:12.261Z,100929.22
2022-12-23T05:54:40.184Z,100931.78
2022-12-23T05:57:08.340Z,100921.44
2022-12-23T05:59:36.315Z,100929.53
2022-12-23T06:02:04.468Z,100931.00
2022-12-23T06:04:32.655Z,100933.38
2022-12-23T06:07:00.532Z,100935.63
2022-12-23T06:09:28.427Z,100944.25
2022-12-23T06:11:56.527Z,100941.91
2022-12-23T06:14:28.813Z,100947.63
2022-12-23T06:16:57.305Z,100948.13
2022-12-23T06:19:25.229Z,100948.34
2022-12-23T06:21:52.765Z,100956.91
2022-12-23T06:24:20.919Z,100959.72
2022-12-23T06:26:53.371Z,100968.50
2022-12-23T06:29:24.568Z,100972.00
2022-12-23T06:31:52.304Z,100966.38
2022-12-23T06:34:19.956Z,100972.81
2022-12-23T06:36:47.998Z,100969.41
2022-12-23T06:39:15.786Z,100964.50
2022-12-23T06:41:43.517Z,100966.09
2022-12-23T06:44:11.771Z,100973.66
2022-12-23T06:46:39.884Z,100977.72
2022-12-23T06:49:13.125Z,100992.16
2022-12-23T06:51:41.863Z,100984.84
2022-12-23T06:54:11.221Z,100987.69
2022-12-23T06:56:39.382Z,100981.00
2022-12-23T06:59:07.258Z,100972.19
2022-12-23T07:01:35.056Z,100982.19
2022-12-23T07:04:03.242Z,100984.34
2022-12-23T07:06:31.112Z,100991.13
2022-12-23T07:08:59.353Z,100978.81
2022-12-23T07:11:27.329Z,100981.94
2022-12-23T07:13:55.104Z,100998.56
2022-12-23T07:16:23.024Z,101013.16
2022-12-23T07:18:50.736Z,100993.19
2022-12-23T07:21:26.690Z,100983.53
2022-12-23T07:23:56.520Z,100993.09
2022-12-23T07:26:24.286Z,101002.25
2022-12-23T07:28:52.112Z,101009.22
2022-12-23T07:31:19.859Z,101002.78
2022-12-23T07:33:47.630Z,100982.88
2022-12-23T07:36:15.198Z,100992.47
2022-12-23T07:38:43.449Z,100988.25
2022-12-23T07:41:11.774Z,100990.88
2022-12-23T07:43:39.728Z,100981.22
2022-12-23T07:46:08.544Z,100989.72
2022-12-23T07:48:36.755Z,100996.53
2022-12-23T07:51:04.956Z,100988.84
2022-12-23T07:53:33.054Z,100992.47
2022-12-23T07:56:04.095Z,100992.06
2022-12-23T07:58:32.095Z,100986.06
2022-12-23T08:01:03.652Z,100992.69
2022-12-23T08:03:32.368Z,100986.78
2022-12-23T08:06:12.615Z,100986.69
2022-12-23T08:08:41.679Z,100986.44
2022-12-23T08:11:10.426Z,100988.31
2022-12-23T08:13:40.044Z,100996.31
2022-12-23T08:16:08.054Z,101007.72
2022-12-23T08:18:37.081Z,101002.53
2022-12-23T08:21:06.232Z,101015.94
2022-12-23T08:23:34.232Z,101003.53
2022-12-23T08:26:06.502Z,101001.03
2022-12-23T08:28:35.094Z,101001.00
2022-12-23T08:31:08.603Z,100999.09
2022-12-23T08:33:38.377Z,101015.94
2022-12-23T08:36:07.089Z,101015.94
2022-12-23T08:38:35.333Z,101007.97
2022-12-23T08:41:03.320Z,101008.25
2022-12-23T08:43:35.707Z,101000.00
2022-12-23T08:46:04.490Z,100990.22
2022-12-23T08:48:33.644Z,100992.50
2022-12-23T08:51:06.358Z,100989.91
2022-12-23T08:53:35.699Z,100987.81
2022-12-23T08:56:06.788Z,100986.25
2022-12-23T08:58:38.170Z,100997.00
2022-12-23T09:01:08.256Z,100989.09
2022-12-23T09:03:36.666Z,100989.50
2022-12-23T09:06:06.167Z,100990.25
2022-12-23T09:08:34.661Z,100995.81
2022-12-23T09:11:02.509Z,100995.69
2022-12-23T09:13:35.264Z,100992.13
2022-12-23T09:16:04.630Z,100997.78
2022-12-23T09:18:33.318Z,100994.19
2022-12-23T09:21:02.826Z,101001.38
2022-12-23T09:23:30.768Z,101009.84
2022-12-23T09:25:59.008Z,101014.97
2022-12-23T09:28:27.129Z,101016.19
2022-12-23T09:30:54.924Z,101010.78
2022-12-23T09:33:23.163Z,101014.66
2022-12-23T09:35:51.550Z,101015.00
2022-12-23T09:38:20.141Z,101008.53
2022-12-23T09:40:47.977Z,101002.16
2022-12-23T09:43:24.509Z,100991.25
2022-12-23T09:46:06.917Z,100989.97
2022-12-23T09:48:38.534Z,100986.47
2022-12-23T09:51:06.315Z,100995.16
2022-12-23T09:54:16.416Z,100997.81
2022-12-23T09:56:54.138Z,101006.97
2022-12-23T09:59:21.937Z,101007.59
2022-12-23T10:02:09.804Z,101010.81
2022-12-23T10:04:42.116Z,101014.41
2022-12-23T10:07:29.989Z,101016.88
2022-12-23T10:10:01.710Z,101022.38
2022-12-23T10:12:40.163Z,101028.34
2022-12-23T10:15:20.341Z,101018.06
2022-12-23T10:17:50.461Z,101025.22
2022-12-23T10:20:21.171Z,101018.50
2022-12-23T10:22:48.607Z,101017.00
2022-12-23T10:25:20.028Z,101001.94
2022-12-23T10:27:47.703Z,101003.66
2022-12-23T10:33:18.217Z,100996.59
2022-12-23T10:36:11.985Z,100993.81
2022-12-23T10:38:58.413Z,101000.53
2022-12-23T10:41:38.313Z,100991.66
2022-12-23T10:44:12.131Z,100998.78
2022-12-23T10:47:00.200Z,100987.41
2022-12-23T10:49:36.496Z,100992.88
2022-12-23T10:52:09.306Z,100983.56
2022-12-23T10:54:37.527Z,100980.75
2022-12-23T10:57:06.693Z,100975.78
2022-12-23T10:59:34.930Z,100962.81
2022-12-23T11:02:14.486Z,100965.59
2022-12-23T11:04:42.443Z,100958.16
2022-12-23T11:10:03.684Z,100968.94
2022-12-23T11:12:42.154Z,100978.19
2022-12-23T11:15:29.905Z,100973.53
2022-12-23T11:18:17.760Z,100956.84
2022-12-23T11:20:46.895Z,100961.47
2022-12-23T11:23:28.841Z,100961.34
2022-12-23T11:26:07.117Z,100973.00
2022-12-23T11:28:37.437Z,100952.38
2022-12-23T11:31:12.033Z,100951.03
2022-12-23T11:34:00.007Z,100957.66
2022-12-23T11:36:29.205Z,100948.25
2022-12-23T11:38:56.885Z,100932.19
2022-12-23T11:41:27.066Z,100937.47
2022-12-23T11:44:01.801Z,100930.84
2022-12-23T11:46:30.972Z,100924.88
2022-12-23T11:49:16.633Z,100942.47
2022-12-23T11:51:45.747Z,100935.56
2022-12-23T11:54:18.364Z,100930.72
2022-12-23T11:56:48.533Z,100920.88
2022-12-23T11:59:22.049Z,100931.66
2022-12-23T12:01:49.916Z,100916.50
2022-12-23T12:04:25.369Z,100910.69
2022-12-23T12:06:56.605Z,100902.31
2022-12-23T12:09:25.306Z,100904.66
2022-12-23T12:11:55.032Z,100883.25
2022-12-23T12:14:34.068Z,100882.75
2022-12-23T12:17:14.644Z,100875.19
2022-12-23T12:19:47.369Z,100880.97
2022-12-23T12:22:18.868Z,100893.91
2022-12-23T12:24:50.581Z,100888.25
2022-12-23T12:27:19.303Z,100891.38
2022-12-23T12:29:49.247Z,100889.59
2022-12-23T12:32:39.876Z,100890.00
2022-12-23T12:35:13.212Z,100906.00
2022-12-23T12:37:50.280Z,100905.28
2022-12-23T12:40:24.328Z,100891.44
2022-12-23T12:43:10.607Z,100886.63
2022-12-23T12:45:45.764Z,100880.78
2022-12-23T12:48:31.928Z,100879.72
2022-12-23T12:51:21.168Z,100876.03
2022-12-23T12:54:07.405Z,100862.88
2022-12-23T12:56:43.989Z,100866.00
2022-12-23T12:59:18.543Z,100846.69
2022-12-23T13:01:46.533Z,100853.25
2022-12-23T13:04:17.302Z,100863.91
2022-12-23T13:07:00.033Z,100867.28
2022-12-23T13:09:50.687Z,100863.53
2022-12-23T13:12:50.922Z,100860.41
2022-12-23T13:15:22.469Z,100859.31
2022-12-23T13:18:06.219Z,100874.97
2022-12-23T13:20:36.898Z,100881.50
2022-12-23T13:23:41.625Z,100883.03
2022-12-23T13:26:05.491Z,100878.56
2022-12-23T13:28:36.397Z,100883.25
2022-12-23T13:31:24.836Z,100889.03
2022-12-23T13:34:12.732Z,100899.53
2022-12-23T13:36:49.203Z,100912.06
2022-12-23T13:39:16.768Z,100913.00
2022-12-23T13:41:47.251Z,100902.22
2022-12-23T13:44:15.303Z,100897.22
2022-12-23T13:47:01.009Z,100898.63
2022-12-23T13:49:40.540Z,100898.34
2022-12-23T13:52:29.641Z,100900.63
2022-12-23T13:55:15.604Z,100903.09
2022-12-23T13:57:52.129Z,100905.41
2022-12-23T14:00:20.268Z,100905.25
2022-12-23T14:02:47.902Z,100907.00
2022-12-23T14:05:35.124Z,100917.91
2022-12-23T14:08:07.319Z,100922.63
2022-12-23T14:10:35.763Z,100923.66
2022-12-23T14:13:06.371Z,100910.72
2022-12-23T14:15:33.987Z,100916.47
2022-12-23T14:18:20.310Z,100911.00
2022-12-23T14:20:50.772Z,100909.16
2022-12-23T14:23:33.463Z,100910.97
2022-12-23T14:26:07.296Z,100911.81
2022-12-23T14:28:44.136Z,100920.88
2022-12-23T14:31:30.386Z,100910.78
2022-12-23T14:34:27.102Z,100915.88
2022-12-23T14:37:13.214Z,100915.75
2022-12-23T14:39:40.845Z,100923.84
2022-12-23T14:42:16.468Z,100916.69
2022-12-23T14:44:46.443Z,100912.59
2022-12-23T14:47:32.479Z,100903.53
2022-12-23T14:50:18.620Z,100900.59
2022-12-23T14:52:46.739Z,100907.41
2022-12-23T14:55:31.663Z,100899.44
2022-12-23T14:58:08.494Z,100914.34
2022-12-23T15:00:45.069Z,100922.28
2022-12-23T15:03:13.120Z,100919.47
2022-12-23T15:05:40.718Z,100914.31
2022-12-23T15:08:34.231Z,100927.44
2022-12-23T15:11:02.159Z,100906.97
2022-12-23T15:13:31.176Z,100908.34
2022-12-23T15:16:01.695Z,100908.97
2022-12-23T15:18:29.759Z,100906.31
2022-12-23T15:21:04.944Z,100883.25
2022-12-23T15:23:33.442Z,100868.97
2022-12-23T15:26:01.532Z,100872.75
2022-12-23T15:28:33.591Z,100872.22
2022-12-23T15:31:02.043Z,100865.66
2022-12-23T15:36:35.893Z,100885.94
2022-12-23T15:39:09.433Z,100872.41
2022-12-23T15:41:44.114Z,100872.63
2022-12-23T15:44:14.150Z,100868.44
2022-12-23T15:46:41.786Z,100862.50
2022-12-23T15:49:11.159Z,100850.63
2022-12-23T15:52:06.588Z,100861.13
2022-12-23T15:54:35.501Z,100859.47
2022-12-23T15:57:03.487Z,100867.50
2022-12-23T15:59:38.524Z,100886.28
2022-12-23T16:02:40.495Z,100903.38
2022-12-23T16:05:00.554Z,100914.25
2022-12-23T16:07:41.664Z,100897.91
2022-12-23T16:10:12.160Z,100891.13
2022-12-23T16:12:40.388Z,100898.72
2022-12-23T16:15:28.347Z,100913.19
2022-12-23T16:18:11.661Z,100913.41
2022-12-23T16:20:41.889Z,100902.59
2022-12-23T16:23:11.410Z,100912.72
2022-12-23T16:25:39.543Z,100910.53
2022-12-23T16:28:23.107Z,100905.53
2022-12-23T16:30:54.612Z,100910.97
2022-12-23T16:33:28.031Z,100918.59
2022-12-23T16:35:56.120Z,100932.50
2022-12-23T16:38:24.935Z,100922.75
2022-12-23T16:40:54.088Z,100921.53
2022-12-23T16:43:22.232Z,100931.25
2022-12-23T16:45:57.095Z,100926.78
2022-12-23T16:48:24.467Z,100923.13
2022-12-23T16:50:52.652Z,100917.38
2022-12-23T16:53:20.551Z,100915.81
2022-12-23T16:55:55.050Z,100919.19
2022-12-23T16:58:26.587Z,100922.63
2022-12-23T17:00:54.558Z,100921.91
2022-12-23T17:03:22.138Z,100928.25
2022-12-23T17:05:49.841Z,100936.00
2022-12-23T17:08:17.239Z,100938.84
2022-12-23T17:10:45.708Z,100934.47
2022-12-23T17:13:14.405Z,100922.59
2022-12-23T17:15:43.043Z,100919.97
2022-12-23T17:18:19.607Z,100912.59
2022-12-23T17:20:48.475Z,100918.44
2022-12-23T17:23:27.053Z,100905.59
2022-12-23T17:25:54.699Z,100909.63
2022-12-23T17:28:22.349Z,100905.84
2022-12-23T17:30:54.312Z,100907.16
2022-12-23T17:33:23.367Z,100915.66
2022-12-23T17:35:50.784Z,100904.09
2022-12-23T17:38:18.649Z,100910.53
2022-12-23T17:40:47.067Z,100921.94
2022-12-23T17:43:15.714Z,100933.94
2022-12-23T17:45:43.988Z,100930.44
2022-12-23T17:48:18.005Z,100932.16
2022-12-23T17:50:48.649Z,100922.81
2022-12-23T17:53:17.449Z,100921.31
2022-12-23T17:55:45.191Z,100941.34
2022-12-23T17:58:14.256Z,100952.56
2022-12-23T18:00:41.970Z,100973.63
2022-12-23T18:03:21.018Z,100973.75
2022-12-23T18:05:48.639Z,100965.09
2022-12-23T18:08:17.119Z,100957.69
2022-12-23T18:10:45.852Z,100962.06
2022-12-23T18:13:15.960Z,100963.06
2022-12-23T18:15:44.200Z,100957.13
2022-12-23T18:18:20.550Z,100964.75
2022-12-23T18:20:56.032Z,100955.66
2022-12-23T18:23:26.047Z,100953.78
2022-12-23T18:25:53.956Z,100951.03
2022-12-23T18:28:21.966Z,100943.22
2022-12-23T18:30:50.130Z,100950.00
2022-12-23T18:33:19.118Z,100947.81
2022-12-23T18:35:48.382Z,100949.47
2022-12-23T18:38:17.379Z,100938.84
2022-12-23T18:40:45.613Z,100950.66
2022-12-23T18:43:18.098Z,100942.91
2022-12-23T18:45:52.250Z,100944.34
2022-12-23T18:48:20.800Z,100940.69
2022-12-23T18:50:48.816Z,100937.97
2022-12-23T18:53:23.426Z,100916.03
2022-12-23T18:55:52.380Z,100922.53
2022-12-23T18:58:20.655Z,100919.59
2022-12-23T19:00:48.800Z,100943.06
2022-12-23T19:03:22.078Z,100948.94
2022-12-23T19:05:50.187Z,100925.56
2022-12-23T19:08:25.531Z,100911.59
2022-12-23T19:10:55.228Z,100911.59
2022-12-23T19:13:23.694Z,100902.75
2022-12-23T19:15:52.130Z,100889.06
2022-12-23T19:18:20.948Z,100887.50
2022-12-23T19:20:49.185Z,100881.88
2022-12-23T19:23:16.685Z,100880.94
2022-12-23T19:25:52.446Z,100892.47
2022-12-23T19:28:22.927Z,100900.84
2022-12-23T19:30:50.621Z,100907.34
2022-12-23T19:33:18.345Z,100919.13
2022-12-23T19:35:45.985Z,100945.72
2022-12-23T19:38:13.543Z,100954.38
2022-12-23T19:40:41.468Z,100957.03
2022-12-23T19:43:09.129Z,100956.09
2022-12-23T19:45:36.776Z,100946.13
2022-12-23T19:48:04.605Z,100958.16
2022-12-23T19:50:32.279Z,100952.91
2022-12-23T19:53:00.098Z,100946.00
2022-12-23T19:55:27.614Z,100961.59
2022-12-23T19:57:55.682Z,100966.59
2022-12-23T20:00:23.225Z,100967.91
2022-12-23T20:02:56.749Z,100960.09
2022-12-23T20:05:26.299Z,100952.50
2022-12-23T20:07:57.132Z,100935.69
2022-12-23T20:10:24.956Z,100932.75
2022-12-23T20:13:12.828Z,100924.16
2022-12-23T20:15:40.312Z,100916.41
2022-12-23T20:18:10.366Z,100942.56
2022-12-23T20:20:38.679Z,100948.53
2022-12-23T20:23:06.399Z,100941.97
2022-12-23T20:25:34.703Z,100948.25
2022-12-23T20:28:03.363Z,100952.25
2022-12-23T20:30:30.870Z,100950.66
2022-12-23T20:32:59.785Z,100946.28
2022-12-23T20:35:28.163Z,100944.88
2022-12-23T20:37:55.786Z,100947.28
2022-12-23T20:40:26.415Z,100963.25
2022-12-23T20:42:54.273Z,100959.16
2022-12-23T20:45:21.847Z,100948.88
2022-12-23T20:47:50.907Z,100949.84
2022-12-23T20:50:19.289Z,100956.41
2022-12-23T20:52:47.250Z,100952.25
2022-12-23T20:55:15.015Z,100947.44
2022-12-23T20:57:44.642Z,100948.66
2022-12-23T21:00:12.853Z,100950.25
2022-12-23T21:02:40.977Z,100948.34
2022-12-23T21:05:08.824Z,100961.81
2022-12-23T21:07:37.759Z,100963.19
2022-12-23T21:10:05.776Z,100962.72
2022-12-23T21:12:33.335Z,100963.31
2022-12-23T21:15:01.165Z,100978.06
2022-12-23T21:17:30.045Z,100973.69
2022-12-23T21:19:59.370Z,100957.44
2022-12-23T21:22:29.587Z,100948.25
2022-12-23T21:24:57.799Z,100931.13
2022-12-23T21:27:25.371Z,100925.81
2022-12-23T21:29:53.018Z,100943.41
2022-12-23T21:32:20.847Z,100955.91
2022-12-23T21:34:51.931Z,100947.88
2022-12-23T21:37:19.638Z,100970.03
2022-12-23T21:39:50.836Z,100949.84
2022-12-23T21:42:18.452Z,100950.78
2022-12-23T21:44:46.929Z,100949.16
2022-12-23T21:47:15.026Z,100957.13
2022-12-23T21:49:44.137Z,100971.91
2022-12-23T21:52:11.952Z,100991.16
2022-12-23T21:54:39.549Z,101001.09
2022-12-23T21:57:07.081Z,100999.63
2022-12-23T21:59:35.556Z,101012.34
2022-12-23T22:02:03.551Z,101022.84
2022-12-23T22:04:31.421Z,101006.16
2022-12-23T22:06:59.058Z,100998.81
2022-12-23T22:09:26.739Z,100998.47
2022-12-23T22:11:56.440Z,100988.69
2022-12-23T22:14:24.195Z,100988.47
2022-12-23T22:16:51.806Z,100996.75
2022-12-23T22:19:19.569Z,100976.03
2022-12-23T22:21:47.017Z,100952.78
2022-12-23T22:24:14.706Z,100935.03
2022-12-23T22:26:42.562Z,100949.34
2022-12-23T22:29:10.656Z,100940.44
2022-12-23T22:31:40.671Z,100948.34
2022-12-23T22:34:09.223Z,100944.00
2022-12-23T22:36:36.888Z,100941.03
2022-12-23T22:39:05.351Z,100937.16
2022-12-23T22:41:34.005Z,100931.28
2022-12-23T22:44:01.795Z,100925.78
2022-12-23T22:46:29.783Z,100903.09
2022-12-23T22:48:59.022Z,100894.59
2022-12-23T22:51:28.203Z,100888.88
2022-12-23T22:53:56.221Z,100889.00
2022-12-23T22:56:24.558Z,100884.34
2022-12-23T22:58:52.999Z,100885.25
2022-12-23T23:01:22.623Z,100875.22
2022-12-23T23:03:56.901Z,100877.66
2022-12-23T23:06:25.902Z,100883.41
2022-12-23T23:08:54.333Z,100889.00
2022-12-23T23:11:22.322Z,100892.28
2022-12-23T23:13:50.035Z,100902.16
2022-12-23T23:16:17.774Z,100905.44
2022-12-23T23:18:45.610Z,100906.09
2022-12-23T23:21:14.122Z,100905.81
2022-12-23T23:23:42.094Z,100913.91
2022-12-23T23:26:10.395Z,100911.09
2022-12-23T23:28:39.429Z,100918.81
2022-12-23T23:31:40.381Z,100908.56
2022-12-23T23:33:55.552Z,100903.94
2022-12-23T23:36:23.557Z,100897.72
2022-12-23T23:38:51.272Z,100888.56
2022-12-23T23:41:23.226Z,100878.22
2022-12-23T23:43:52.001Z,100864.59
2022-12-23T23:46:19.831Z,100892.47
2022-12-23T23:48:47.703Z,100896.22
2022-12-23T23:51:15.155Z,100895.06
2022-12-23T23:53:42.965Z,100902.63
2022-12-23T23:56:10.736Z,100917.34
2022-12-23T23:58:38.670Z,100918.69
